sensor_id;sensor_type;location;lat;lon;timestamp;P1;durP1;ratioP1;P2;durP2;ratioP2
78716;SDS011;68045;50.042;14.432;2023-05-10T00:02:16;6.00;;;3.75;;
78716;SDS011;68045;50.042;14.432;2023-05-10T00:06:17;5.80;;;3.58;;
78716;SDS011;68045;50.042;14.432;2023-05-10T00:10:18;6.10;;;3.30;;
78716;SDS011;68045;50.042;14.432;2023-05-10T00:14:19;7.40;;;3.85;;
78716;SDS011;68045;50.042;14.432;2023-05-10T00:18:20;5.43;;;3.38;;
78716;SDS011;68045;50.042;14.432;2023-05-10T00:22:21;5.95;;;3.38;;
78716;SDS011;68045;50.042;14.432;2023-05-10T00:26:21;6.10;;;3.63;;
78716;SDS011;68045;50.042;14.432;2023-05-10T00:30:26;5.82;;;3.78;;
78716;SDS011;68045;50.042;14.432;2023-05-10T00:34:27;5.55;;;3.72;;
78716;SDS011;68045;50.042;14.432;2023-05-10T00:38:28;7.35;;;4.22;;
78716;SDS011;68045;50.042;14.432;2023-05-10T00:42:30;5.85;;;4.07;;
78716;SDS011;68045;50.042;14.432;2023-05-10T00:46:31;6.93;;;4.05;;
78716;SDS011;68045;50.042;14.432;2023-05-10T00:50:33;8.88;;;4.88;;
78716;SDS011;68045;50.042;14.432;2023-05-10T00:54:34;8.35;;;4.50;;
78716;SDS011;68045;50.042;14.432;2023-05-10T00:58:35;5.97;;;3.92;;
78716;SDS011;68045;50.042;14.432;2023-05-10T01:02:36;7.38;;;4.15;;
78716;SDS011;68045;50.042;14.432;2023-05-10T01:06:37;9.38;;;4.20;;
78716;SDS011;68045;50.042;14.432;2023-05-10T01:10:38;7.05;;;3.65;;
78716;SDS011;68045;50.042;14.432;2023-05-10T01:14:39;6.82;;;3.90;;
78716;SDS011;68045;50.042;14.432;2023-05-10T01:18:41;6.10;;;3.30;;
78716;SDS011;68045;50.042;14.432;2023-05-10T01:22:49;7.38;;;3.83;;
78716;SDS011;68045;50.042;14.432;2023-05-10T01:27:13;6.22;;;3.40;;
78716;SDS011;68045;50.042;14.432;2023-05-10T01:39:55;6.80;;;3.70;;
78716;SDS011;68045;50.042;14.432;2023-05-10T01:44:11;6.00;;;3.70;;
78716;SDS011;68045;50.042;14.432;2023-05-10T01:48:20;7.18;;;3.13;;
78716;SDS011;68045;50.042;14.432;2023-05-10T01:52:25;6.25;;;3.58;;
78716;SDS011;68045;50.042;14.432;2023-05-10T01:56:31;7.07;;;3.42;;
78716;SDS011;68045;50.042;14.432;2023-05-10T02:00:34;7.95;;;3.47;;
78716;SDS011;68045;50.042;14.432;2023-05-10T02:08:38;5.03;;;2.80;;
78716;SDS011;68045;50.042;14.432;2023-05-10T02:12:42;5.47;;;3.20;;
78716;SDS011;68045;50.042;14.432;2023-05-10T02:16:46;7.00;;;3.60;;
78716;SDS011;68045;50.042;14.432;2023-05-10T02:20:48;4.93;;;2.95;;
78716;SDS011;68045;50.042;14.432;2023-05-10T02:24:50;6.22;;;3.30;;
78716;SDS011;68045;50.042;14.432;2023-05-10T02:28:51;6.25;;;3.03;;
78716;SDS011;68045;50.042;14.432;2023-05-10T02:32:53;5.07;;;3.08;;
78716;SDS011;68045;50.042;14.432;2023-05-10T02:36:58;4.95;;;3.28;;
78716;SDS011;68045;50.042;14.432;2023-05-10T02:41:00;4.85;;;3.20;;
78716;SDS011;68045;50.042;14.432;2023-05-10T02:45:04;12.68;;;3.67;;
78716;SDS011;68045;50.042;14.432;2023-05-10T02:49:08;6.60;;;3.88;;
78716;SDS011;68045;50.042;14.432;2023-05-10T02:53:10;6.13;;;3.60;;
78716;SDS011;68045;50.042;14.432;2023-05-10T02:57:15;5.28;;;3.30;;
78716;SDS011;68045;50.042;14.432;2023-05-10T03:01:19;6.22;;;3.60;;
78716;SDS011;68045;50.042;14.432;2023-05-10T03:05:20;6.15;;;3.60;;
78716;SDS011;68045;50.042;14.432;2023-05-10T03:09:22;5.95;;;3.45;;
78716;SDS011;68045;50.042;14.432;2023-05-10T03:17:52;7.30;;;3.38;;
78716;SDS011;68045;50.042;14.432;2023-05-10T03:21:59;5.50;;;3.30;;
78716;SDS011;68045;50.042;14.432;2023-05-10T03:26:08;5.43;;;2.92;;
78716;SDS011;68045;50.042;14.432;2023-05-10T03:30:10;5.18;;;3.08;;
78716;SDS011;68045;50.042;14.432;2023-05-10T03:34:12;5.93;;;3.33;;
78716;SDS011;68045;50.042;14.432;2023-05-10T03:38:13;5.15;;;3.10;;
78716;SDS011;68045;50.042;14.432;2023-05-10T03:42:15;5.38;;;3.17;;
78716;SDS011;68045;50.042;14.432;2023-05-10T03:46:18;7.93;;;3.20;;
78716;SDS011;68045;50.042;14.432;2023-05-10T03:50:19;7.75;;;3.03;;
78716;SDS011;68045;50.042;14.432;2023-05-10T03:54:22;5.85;;;3.38;;
78716;SDS011;68045;50.042;14.432;2023-05-10T03:58:23;6.75;;;3.58;;
78716;SDS011;68045;50.042;14.432;2023-05-10T04:02:24;4.82;;;3.08;;
78716;SDS011;68045;50.042;14.432;2023-05-10T04:06:25;5.60;;;3.00;;
78716;SDS011;68045;50.042;14.432;2023-05-10T04:10:26;7.10;;;3.28;;
78716;SDS011;68045;50.042;14.432;2023-05-10T04:14:27;4.95;;;3.17;;
78716;SDS011;68045;50.042;14.432;2023-05-10T04:18:28;5.50;;;3.20;;
78716;SDS011;68045;50.042;14.432;2023-05-10T04:22:29;5.88;;;3.60;;
78716;SDS011;68045;50.042;14.432;2023-05-10T04:26:30;5.80;;;3.00;;
78716;SDS011;68045;50.042;14.432;2023-05-10T04:30:31;5.32;;;3.20;;
78716;SDS011;68045;50.042;14.432;2023-05-10T04:34:32;5.70;;;3.38;;
78716;SDS011;68045;50.042;14.432;2023-05-10T04:38:34;11.18;;;3.55;;
78716;SDS011;68045;50.042;14.432;2023-05-10T04:42:35;5.43;;;3.45;;
78716;SDS011;68045;50.042;14.432;2023-05-10T04:46:36;7.15;;;3.15;;
78716;SDS011;68045;50.042;14.432;2023-05-10T04:50:37;6.28;;;3.50;;
78716;SDS011;68045;50.042;14.432;2023-05-10T04:54:39;6.47;;;3.30;;
78716;SDS011;68045;50.042;14.432;2023-05-10T04:58:41;6.13;;;3.72;;
78716;SDS011;68045;50.042;14.432;2023-05-10T05:02:42;9.23;;;3.50;;
78716;SDS011;68045;50.042;14.432;2023-05-10T05:06:44;7.00;;;3.63;;
78716;SDS011;68045;50.042;14.432;2023-05-10T05:10:45;6.93;;;3.70;;
78716;SDS011;68045;50.042;14.432;2023-05-10T05:14:46;9.45;;;3.25;;
78716;SDS011;68045;50.042;14.432;2023-05-10T05:18:47;6.45;;;3.47;;
78716;SDS011;68045;50.042;14.432;2023-05-10T05:22:47;6.90;;;3.50;;
78716;SDS011;68045;50.042;14.432;2023-05-10T05:26:49;8.18;;;3.33;;
78716;SDS011;68045;50.042;14.432;2023-05-10T05:30:49;5.15;;;3.40;;
78716;SDS011;68045;50.042;14.432;2023-05-10T05:34:50;6.68;;;3.10;;
78716;SDS011;68045;50.042;14.432;2023-05-10T05:38:51;6.85;;;3.40;;
78716;SDS011;68045;50.042;14.432;2023-05-10T05:42:52;5.80;;;3.28;;
78716;SDS011;68045;50.042;14.432;2023-05-10T05:46:53;7.90;;;3.20;;
78716;SDS011;68045;50.042;14.432;2023-05-10T05:50:54;6.03;;;3.30;;
78716;SDS011;68045;50.042;14.432;2023-05-10T05:58:57;5.75;;;3.30;;
78716;SDS011;68045;50.042;14.432;2023-05-10T06:02:58;6.03;;;3.55;;
78716;SDS011;68045;50.042;14.432;2023-05-10T06:06:59;7.43;;;3.50;;
78716;SDS011;68045;50.042;14.432;2023-05-10T06:11:00;6.78;;;3.13;;
78716;SDS011;68045;50.042;14.432;2023-05-10T06:15:02;6.80;;;3.70;;
78716;SDS011;68045;50.042;14.432;2023-05-10T06:19:03;5.10;;;3.30;;
78716;SDS011;68045;50.042;14.432;2023-05-10T06:23:04;5.88;;;2.97;;
78716;SDS011;68045;50.042;14.432;2023-05-10T06:27:05;8.30;;;3.33;;
78716;SDS011;68045;50.042;14.432;2023-05-10T06:31:06;5.82;;;3.22;;
78716;SDS011;68045;50.042;14.432;2023-05-10T06:35:07;4.70;;;2.95;;
78716;SDS011;68045;50.042;14.432;2023-05-10T06:39:09;5.32;;;3.05;;
78716;SDS011;68045;50.042;14.432;2023-05-10T06:43:12;5.43;;;3.10;;
78716;SDS011;68045;50.042;14.432;2023-05-10T06:47:12;7.65;;;3.08;;
78716;SDS011;68045;50.042;14.432;2023-05-10T06:51:14;7.35;;;3.13;;
78716;SDS011;68045;50.042;14.432;2023-05-10T06:55:14;5.55;;;3.15;;
78716;SDS011;68045;50.042;14.432;2023-05-10T06:59:15;4.57;;;2.85;;
78716;SDS011;68045;50.042;14.432;2023-05-10T07:03:17;4.70;;;2.97;;
78716;SDS011;68045;50.042;14.432;2023-05-10T07:07:18;9.45;;;3.10;;
78716;SDS011;68045;50.042;14.432;2023-05-10T07:11:19;7.30;;;3.17;;
78716;SDS011;68045;50.042;14.432;2023-05-10T07:15:20;5.72;;;3.15;;
78716;SDS011;68045;50.042;14.432;2023-05-10T07:19:21;4.93;;;2.70;;
78716;SDS011;68045;50.042;14.432;2023-05-10T07:23:22;7.82;;;3.28;;
78716;SDS011;68045;50.042;14.432;2023-05-10T07:27:23;7.25;;;3.33;;
78716;SDS011;68045;50.042;14.432;2023-05-10T07:31:24;5.68;;;3.33;;
78716;SDS011;68045;50.042;14.432;2023-05-10T07:35:25;5.43;;;3.15;;
78716;SDS011;68045;50.042;14.432;2023-05-10T07:39:26;5.70;;;3.38;;
78716;SDS011;68045;50.042;14.432;2023-05-10T07:43:27;8.25;;;3.17;;
78716;SDS011;68045;50.042;14.432;2023-05-10T07:47:28;5.55;;;3.65;;
78716;SDS011;68045;50.042;14.432;2023-05-10T07:51:29;4.57;;;3.08;;
78716;SDS011;68045;50.042;14.432;2023-05-10T07:55:30;5.55;;;3.00;;
78716;SDS011;68045;50.042;14.432;2023-05-10T07:59:31;9.75;;;3.38;;
78716;SDS011;68045;50.042;14.432;2023-05-10T08:03:32;5.18;;;3.42;;
78716;SDS011;68045;50.042;14.432;2023-05-10T08:07:33;4.95;;;3.05;;
78716;SDS011;68045;50.042;14.432;2023-05-10T08:11:34;7.45;;;3.13;;
78716;SDS011;68045;50.042;14.432;2023-05-10T08:15:35;5.65;;;3.30;;
78716;SDS011;68045;50.042;14.432;2023-05-10T08:19:36;6.13;;;3.33;;
78716;SDS011;68045;50.042;14.432;2023-05-10T08:23:37;5.30;;;2.80;;
78716;SDS011;68045;50.042;14.432;2023-05-10T08:27:38;5.95;;;2.95;;
78716;SDS011;68045;50.042;14.432;2023-05-10T08:31:39;4.85;;;3.05;;
78716;SDS011;68045;50.042;14.432;2023-05-10T08:35:40;5.90;;;3.42;;
78716;SDS011;68045;50.042;14.432;2023-05-10T08:39:41;4.68;;;3.00;;
78716;SDS011;68045;50.042;14.432;2023-05-10T08:43:42;8.60;;;3.00;;
78716;SDS011;68045;50.042;14.432;2023-05-10T08:47:46;7.32;;;3.53;;
78716;SDS011;68045;50.042;14.432;2023-05-10T08:51:49;4.43;;;2.90;;
78716;SDS011;68045;50.042;14.432;2023-05-10T08:55:52;5.88;;;3.25;;
78716;SDS011;68045;50.042;14.432;2023-05-10T09:03:55;4.30;;;3.17;;
78716;SDS011;68045;50.042;14.432;2023-05-10T09:07:56;5.78;;;3.22;;
78716;SDS011;68045;50.042;14.432;2023-05-10T09:11:57;4.57;;;2.83;;
78716;SDS011;68045;50.042;14.432;2023-05-10T09:15:58;4.65;;;3.20;;
78716;SDS011;68045;50.042;14.432;2023-05-10T09:20:00;4.53;;;3.00;;
78716;SDS011;68045;50.042;14.432;2023-05-10T09:24:03;6.90;;;3.50;;
78716;SDS011;68045;50.042;14.432;2023-05-10T09:28:06;4.75;;;3.08;;
78716;SDS011;68045;50.042;14.432;2023-05-10T09:32:08;4.40;;;2.95;;
78716;SDS011;68045;50.042;14.432;2023-05-10T09:36:09;5.10;;;3.35;;
78716;SDS011;68045;50.042;14.432;2023-05-10T09:40:11;8.63;;;3.20;;
78716;SDS011;68045;50.042;14.432;2023-05-10T09:44:16;4.00;;;2.65;;
78716;SDS011;68045;50.042;14.432;2023-05-10T09:48:18;6.10;;;3.03;;
78716;SDS011;68045;50.042;14.432;2023-05-10T09:52:24;4.30;;;2.90;;
78716;SDS011;68045;50.042;14.432;2023-05-10T09:56:44;4.85;;;2.90;;
78716;SDS011;68045;50.042;14.432;2023-05-10T10:00:45;7.00;;;3.03;;
78716;SDS011;68045;50.042;14.432;2023-05-10T10:04:48;4.20;;;2.83;;
78716;SDS011;68045;50.042;14.432;2023-05-10T10:08:50;6.15;;;3.00;;
78716;SDS011;68045;50.042;14.432;2023-05-10T10:12:52;5.78;;;2.95;;
78716;SDS011;68045;50.042;14.432;2023-05-10T10:16:53;5.85;;;3.33;;
78716;SDS011;68045;50.042;14.432;2023-05-10T10:20:56;5.53;;;3.22;;
78716;SDS011;68045;50.042;14.432;2023-05-10T10:24:57;4.72;;;2.80;;
78716;SDS011;68045;50.042;14.432;2023-05-10T10:37:46;3.92;;;2.70;;
78716;SDS011;68045;50.042;14.432;2023-05-10T10:41:52;4.30;;;2.70;;
78716;SDS011;68045;50.042;14.432;2023-05-10T10:46:10;5.22;;;2.97;;
78716;SDS011;68045;50.042;14.432;2023-05-10T10:50:15;4.82;;;2.95;;
78716;SDS011;68045;50.042;14.432;2023-05-10T10:54:28;6.10;;;2.83;;
78716;SDS011;68045;50.042;14.432;2023-05-10T10:58:29;4.97;;;3.25;;
78716;SDS011;68045;50.042;14.432;2023-05-10T11:02:34;8.30;;;3.25;;
78716;SDS011;68045;50.042;14.432;2023-05-10T11:06:41;5.55;;;2.80;;
78716;SDS011;68045;50.042;14.432;2023-05-10T11:15:08;4.22;;;2.85;;
78716;SDS011;68045;50.042;14.432;2023-05-10T11:19:10;4.55;;;2.92;;
78716;SDS011;68045;50.042;14.432;2023-05-10T11:23:13;4.63;;;2.90;;
78716;SDS011;68045;50.042;14.432;2023-05-10T11:27:16;4.40;;;2.83;;
78716;SDS011;68045;50.042;14.432;2023-05-10T11:31:17;4.40;;;2.90;;
78716;SDS011;68045;50.042;14.432;2023-05-10T11:35:19;4.40;;;2.92;;
78716;SDS011;68045;50.042;14.432;2023-05-10T11:39:20;6.68;;;3.13;;
78716;SDS011;68045;50.042;14.432;2023-05-10T11:43:23;4.90;;;3.10;;
78716;SDS011;68045;50.042;14.432;2023-05-10T11:47:26;5.18;;;3.00;;
78716;SDS011;68045;50.042;14.432;2023-05-10T11:51:27;5.15;;;2.97;;
78716;SDS011;68045;50.042;14.432;2023-05-10T11:55:28;5.95;;;3.00;;
78716;SDS011;68045;50.042;14.432;2023-05-10T11:59:31;4.03;;;2.80;;
78716;SDS011;68045;50.042;14.432;2023-05-10T12:03:32;4.63;;;3.30;;
78716;SDS011;68045;50.042;14.432;2023-05-10T12:07:33;4.60;;;2.70;;
78716;SDS011;68045;50.042;14.432;2023-05-10T12:11:39;6.70;;;3.15;;
78716;SDS011;68045;50.042;14.432;2023-05-10T12:15:41;5.85;;;3.13;;
78716;SDS011;68045;50.042;14.432;2023-05-10T12:23:45;5.72;;;3.10;;
78716;SDS011;68045;50.042;14.432;2023-05-10T12:27:54;5.03;;;3.00;;
78716;SDS011;68045;50.042;14.432;2023-05-10T12:31:57;5.75;;;3.00;;
78716;SDS011;68045;50.042;14.432;2023-05-10T12:35:59;5.82;;;3.25;;
78716;SDS011;68045;50.042;14.432;2023-05-10T12:40:01;5.22;;;3.17;;
78716;SDS011;68045;50.042;14.432;2023-05-10T12:44:03;9.65;;;3.20;;
78716;SDS011;68045;50.042;14.432;2023-05-10T12:48:04;5.63;;;3.10;;
78716;SDS011;68045;50.042;14.432;2023-05-10T12:52:05;8.77;;;3.58;;
78716;SDS011;68045;50.042;14.432;2023-05-10T12:56:06;6.47;;;3.40;;
78716;SDS011;68045;50.042;14.432;2023-05-10T13:00:07;6.05;;;2.90;;
78716;SDS011;68045;50.042;14.432;2023-05-10T13:04:09;6.30;;;3.08;;
78716;SDS011;68045;50.042;14.432;2023-05-10T13:08:10;4.82;;;3.45;;
78716;SDS011;68045;50.042;14.432;2023-05-10T13:12:11;7.72;;;3.60;;
78716;SDS011;68045;50.042;14.432;2023-05-10T13:16:12;9.05;;;3.60;;
78716;SDS011;68045;50.042;14.432;2023-05-10T13:20:12;6.30;;;3.60;;
78716;SDS011;68045;50.042;14.432;2023-05-10T13:28:15;5.70;;;3.58;;
78716;SDS011;68045;50.042;14.432;2023-05-10T13:32:16;5.15;;;3.40;;
78716;SDS011;68045;50.042;14.432;2023-05-10T13:36:17;6.22;;;3.72;;
78716;SDS011;68045;50.042;14.432;2023-05-10T13:40:18;4.78;;;3.45;;
78716;SDS011;68045;50.042;14.432;2023-05-10T13:44:19;7.72;;;3.65;;
78716;SDS011;68045;50.042;14.432;2023-05-10T13:48:21;4.78;;;3.25;;
78716;SDS011;68045;50.042;14.432;2023-05-10T13:52:22;8.02;;;3.67;;
78716;SDS011;68045;50.042;14.432;2023-05-10T13:56:22;5.13;;;3.38;;
78716;SDS011;68045;50.042;14.432;2023-05-10T14:00:23;5.88;;;3.67;;
78716;SDS011;68045;50.042;14.432;2023-05-10T14:04:24;6.63;;;3.75;;
78716;SDS011;68045;50.042;14.432;2023-05-10T14:08:25;6.88;;;3.58;;
78716;SDS011;68045;50.042;14.432;2023-05-10T14:12:27;4.93;;;3.72;;
78716;SDS011;68045;50.042;14.432;2023-05-10T14:16:28;6.47;;;3.58;;
78716;SDS011;68045;50.042;14.432;2023-05-10T14:20:29;9.35;;;3.70;;
78716;SDS011;68045;50.042;14.432;2023-05-10T14:24:30;9.40;;;4.28;;
78716;SDS011;68045;50.042;14.432;2023-05-10T14:28:31;6.32;;;3.88;;
78716;SDS011;68045;50.042;14.432;2023-05-10T14:32:32;6.57;;;3.70;;
78716;SDS011;68045;50.042;14.432;2023-05-10T14:36:33;9.32;;;3.90;;
78716;SDS011;68045;50.042;14.432;2023-05-10T14:40:34;4.63;;;3.25;;
78716;SDS011;68045;50.042;14.432;2023-05-10T14:44:35;7.30;;;3.53;;
78716;SDS011;68045;50.042;14.432;2023-05-10T14:48:36;5.43;;;3.50;;
78716;SDS011;68045;50.042;14.432;2023-05-10T14:52:36;6.40;;;3.35;;
78716;SDS011;68045;50.042;14.432;2023-05-10T14:56:37;5.18;;;3.85;;
78716;SDS011;68045;50.042;14.432;2023-05-10T15:00:38;6.60;;;4.07;;
78716;SDS011;68045;50.042;14.432;2023-05-10T15:04:39;6.70;;;3.47;;
78716;SDS011;68045;50.042;14.432;2023-05-10T15:08:40;5.72;;;3.42;;
78716;SDS011;68045;50.042;14.432;2023-05-10T15:12:42;5.30;;;3.45;;
78716;SDS011;68045;50.042;14.432;2023-05-10T15:16:43;7.90;;;3.60;;
78716;SDS011;68045;50.042;14.432;2023-05-10T15:20:44;4.75;;;2.97;;
78716;SDS011;68045;50.042;14.432;2023-05-10T15:24:45;5.28;;;3.20;;
78716;SDS011;68045;50.042;14.432;2023-05-10T15:28:46;9.40;;;2.88;;
78716;SDS011;68045;50.042;14.432;2023-05-10T15:32:47;8.90;;;3.17;;
78716;SDS011;68045;50.042;14.432;2023-05-10T15:36:47;9.75;;;3.00;;
78716;SDS011;68045;50.042;14.432;2023-05-10T15:40:48;4.97;;;3.00;;
78716;SDS011;68045;50.042;14.432;2023-05-10T15:44:49;4.93;;;3.33;;
78716;SDS011;68045;50.042;14.432;2023-05-10T15:48:50;9.80;;;3.30;;
78716;SDS011;68045;50.042;14.432;2023-05-10T15:52:51;10.48;;;3.50;;
78716;SDS011;68045;50.042;14.432;2023-05-10T15:56:52;5.40;;;3.60;;
78716;SDS011;68045;50.042;14.432;2023-05-10T16:00:54;8.75;;;4.40;;
78716;SDS011;68045;50.042;14.432;2023-05-10T16:04:55;6.40;;;4.00;;
78716;SDS011;68045;50.042;14.432;2023-05-10T16:08:56;6.85;;;4.45;;
78716;SDS011;68045;50.042;14.432;2023-05-10T16:12:56;9.20;;;4.47;;
78716;SDS011;68045;50.042;14.432;2023-05-10T16:16:58;8.10;;;4.40;;
78716;SDS011;68045;50.042;14.432;2023-05-10T16:20:59;7.82;;;4.50;;
78716;SDS011;68045;50.042;14.432;2023-05-10T16:25:01;9.95;;;4.80;;
78716;SDS011;68045;50.042;14.432;2023-05-10T16:29:02;7.07;;;4.57;;
78716;SDS011;68045;50.042;14.432;2023-05-10T16:33:03;11.52;;;5.18;;
78716;SDS011;68045;50.042;14.432;2023-05-10T16:37:04;5.55;;;3.72;;
78716;SDS011;68045;50.042;14.432;2023-05-10T16:41:05;7.93;;;4.72;;
78716;SDS011;68045;50.042;14.432;2023-05-10T16:45:07;7.85;;;4.57;;
78716;SDS011;68045;50.042;14.432;2023-05-10T16:49:08;7.20;;;3.95;;
78716;SDS011;68045;50.042;14.432;2023-05-10T16:53:09;6.57;;;4.57;;
78716;SDS011;68045;50.042;14.432;2023-05-10T16:57:11;6.07;;;4.43;;
78716;SDS011;68045;50.042;14.432;2023-05-10T17:01:11;8.27;;;4.70;;
78716;SDS011;68045;50.042;14.432;2023-05-10T17:05:12;8.02;;;5.18;;
78716;SDS011;68045;50.042;14.432;2023-05-10T17:09:13;8.48;;;4.95;;
78716;SDS011;68045;50.042;14.432;2023-05-10T17:13:14;7.30;;;4.28;;
78716;SDS011;68045;50.042;14.432;2023-05-10T17:17:16;7.43;;;4.80;;
78716;SDS011;68045;50.042;14.432;2023-05-10T17:21:17;10.32;;;5.00;;
78716;SDS011;68045;50.042;14.432;2023-05-10T17:25:18;6.25;;;4.07;;
78716;SDS011;68045;50.042;14.432;2023-05-10T17:29:20;6.80;;;4.53;;
78716;SDS011;68045;50.042;14.432;2023-05-10T17:33:21;9.77;;;5.55;;
78716;SDS011;68045;50.042;14.432;2023-05-10T17:37:22;10.80;;;5.55;;
78716;SDS011;68045;50.042;14.432;2023-05-10T17:41:23;11.95;;;6.05;;
78716;SDS011;68045;50.042;14.432;2023-05-10T17:45:24;9.75;;;5.75;;
78716;SDS011;68045;50.042;14.432;2023-05-10T17:49:25;11.82;;;5.95;;
78716;SDS011;68045;50.042;14.432;2023-05-10T17:53:28;9.95;;;6.30;;
78716;SDS011;68045;50.042;14.432;2023-05-10T17:57:29;12.27;;;6.20;;
78716;SDS011;68045;50.042;14.432;2023-05-10T18:01:30;11.00;;;5.93;;
78716;SDS011;68045;50.042;14.432;2023-05-10T18:05:34;12.27;;;6.53;;
78716;SDS011;68045;50.042;14.432;2023-05-10T18:09:36;10.02;;;6.40;;
78716;SDS011;68045;50.042;14.432;2023-05-10T18:13:37;10.23;;;6.30;;
78716;SDS011;68045;50.042;14.432;2023-05-10T18:17:38;11.32;;;6.82;;
78716;SDS011;68045;50.042;14.432;2023-05-10T18:21:39;9.80;;;5.95;;
78716;SDS011;68045;50.042;14.432;2023-05-10T18:25:40;10.13;;;6.35;;
78716;SDS011;68045;50.042;14.432;2023-05-10T18:29:40;13.65;;;6.60;;
78716;SDS011;68045;50.042;14.432;2023-05-10T18:33:43;9.35;;;6.50;;
78716;SDS011;68045;50.042;14.432;2023-05-10T18:41:45;11.13;;;6.40;;
78716;SDS011;68045;50.042;14.432;2023-05-10T18:45:46;10.98;;;6.45;;
78716;SDS011;68045;50.042;14.432;2023-05-10T18:49:47;18.98;;;6.60;;
78716;SDS011;68045;50.042;14.432;2023-05-10T18:53:48;9.57;;;6.13;;
78716;SDS011;68045;50.042;14.432;2023-05-10T18:57:48;9.65;;;6.72;;
78716;SDS011;68045;50.042;14.432;2023-05-10T19:01:49;11.45;;;6.80;;
78716;SDS011;68045;50.042;14.432;2023-05-10T19:05:50;9.60;;;6.57;;
78716;SDS011;68045;50.042;14.432;2023-05-10T19:09:51;15.57;;;7.22;;
78716;SDS011;68045;50.042;14.432;2023-05-10T19:13:52;11.10;;;7.03;;
78716;SDS011;68045;50.042;14.432;2023-05-10T19:17:52;12.52;;;7.53;;
78716;SDS011;68045;50.042;14.432;2023-05-10T19:21:53;11.93;;;7.13;;
78716;SDS011;68045;50.042;14.432;2023-05-10T19:25:54;13.50;;;7.07;;
78716;SDS011;68045;50.042;14.432;2023-05-10T19:29:55;11.55;;;6.60;;
78716;SDS011;68045;50.042;14.432;2023-05-10T19:33:56;11.90;;;7.13;;
78716;SDS011;68045;50.042;14.432;2023-05-10T19:37:57;10.88;;;6.82;;
78716;SDS011;68045;50.042;14.432;2023-05-10T19:41:57;11.43;;;6.55;;
78716;SDS011;68045;50.042;14.432;2023-05-10T19:45:59;10.80;;;7.15;;
78716;SDS011;68045;50.042;14.432;2023-05-10T19:50:01;12.07;;;6.15;;
78716;SDS011;68045;50.042;14.432;2023-05-10T19:54:03;12.35;;;6.15;;
78716;SDS011;68045;50.042;14.432;2023-05-10T19:58:04;12.05;;;7.10;;
78716;SDS011;68045;50.042;14.432;2023-05-10T20:02:05;10.60;;;7.25;;
78716;SDS011;68045;50.042;14.432;2023-05-10T20:06:07;14.75;;;7.32;;
78716;SDS011;68045;50.042;14.432;2023-05-10T20:10:08;11.32;;;6.75;;
78716;SDS011;68045;50.042;14.432;2023-05-10T20:14:10;13.80;;;7.35;;
78716;SDS011;68045;50.042;14.432;2023-05-10T20:18:11;10.95;;;7.75;;
78716;SDS011;68045;50.042;14.432;2023-05-10T20:22:12;14.18;;;8.25;;
78716;SDS011;68045;50.042;14.432;2023-05-10T20:26:13;11.07;;;6.90;;
78716;SDS011;68045;50.042;14.432;2023-05-10T20:30:14;13.73;;;7.28;;
78716;SDS011;68045;50.042;14.432;2023-05-10T20:34:14;12.93;;;7.70;;
78716;SDS011;68045;50.042;14.432;2023-05-10T20:38:16;11.50;;;7.20;;
78716;SDS011;68045;50.042;14.432;2023-05-10T20:42:17;12.90;;;6.97;;
78716;SDS011;68045;50.042;14.432;2023-05-10T20:46:18;11.63;;;7.07;;
78716;SDS011;68045;50.042;14.432;2023-05-10T20:50:19;12.65;;;7.10;;
78716;SDS011;68045;50.042;14.432;2023-05-10T20:54:20;13.50;;;7.22;;
78716;SDS011;68045;50.042;14.432;2023-05-10T20:58:21;10.13;;;7.05;;
78716;SDS011;68045;50.042;14.432;2023-05-10T21:02:22;14.40;;;7.50;;
78716;SDS011;68045;50.042;14.432;2023-05-10T21:06:23;11.98;;;7.25;;
78716;SDS011;68045;50.042;14.432;2023-05-10T21:10:24;10.85;;;7.03;;
78716;SDS011;68045;50.042;14.432;2023-05-10T21:14:28;11.35;;;7.35;;
78716;SDS011;68045;50.042;14.432;2023-05-10T21:18:30;15.63;;;7.45;;
78716;SDS011;68045;50.042;14.432;2023-05-10T21:22:31;12.27;;;6.57;;
78716;SDS011;68045;50.042;14.432;2023-05-10T21:26:31;11.20;;;6.90;;
78716;SDS011;68045;50.042;14.432;2023-05-10T21:30:32;11.98;;;7.53;;
78716;SDS011;68045;50.042;14.432;2023-05-10T21:34:33;11.20;;;7.00;;
78716;SDS011;68045;50.042;14.432;2023-05-10T21:38:34;14.77;;;7.82;;
78716;SDS011;68045;50.042;14.432;2023-05-10T21:42:35;20.63;;;7.25;;
78716;SDS011;68045;50.042;14.432;2023-05-10T21:46:35;12.88;;;6.70;;
78716;SDS011;68045;50.042;14.432;2023-05-10T21:50:36;13.20;;;7.05;;
78716;SDS011;68045;50.042;14.432;2023-05-10T21:54:38;9.77;;;6.25;;
78716;SDS011;68045;50.042;14.432;2023-05-10T21:58:39;9.60;;;5.93;;
78716;SDS011;68045;50.042;14.432;2023-05-10T22:02:39;9.30;;;6.05;;
78716;SDS011;68045;50.042;14.432;2023-05-10T22:06:40;8.50;;;5.50;;
78716;SDS011;68045;50.042;14.432;2023-05-10T22:10:41;8.45;;;5.40;;
78716;SDS011;68045;50.042;14.432;2023-05-10T22:14:42;11.38;;;5.53;;
78716;SDS011;68045;50.042;14.432;2023-05-10T22:18:43;6.57;;;4.65;;
78716;SDS011;68045;50.042;14.432;2023-05-10T22:22:44;12.43;;;5.10;;
78716;SDS011;68045;50.042;14.432;2023-05-10T22:26:45;7.53;;;5.18;;
78716;SDS011;68045;50.042;14.432;2023-05-10T22:30:46;5.15;;;3.97;;
78716;SDS011;68045;50.042;14.432;2023-05-10T22:34:47;7.10;;;4.40;;
78716;SDS011;68045;50.042;14.432;2023-05-10T22:38:48;5.22;;;3.67;;
78716;SDS011;68045;50.042;14.432;2023-05-10T22:42:49;6.90;;;4.78;;
78716;SDS011;68045;50.042;14.432;2023-05-10T22:46:50;5.90;;;4.28;;
78716;SDS011;68045;50.042;14.432;2023-05-10T22:50:51;5.63;;;3.30;;
78716;SDS011;68045;50.042;14.432;2023-05-10T22:54:52;6.07;;;3.60;;
78716;SDS011;68045;50.042;14.432;2023-05-10T22:58:52;5.38;;;3.30;;
78716;SDS011;68045;50.042;14.432;2023-05-10T23:02:54;9.70;;;3.92;;
78716;SDS011;68045;50.042;14.432;2023-05-10T23:06:54;7.93;;;3.63;;
78716;SDS011;68045;50.042;14.432;2023-05-10T23:10:55;3.95;;;3.08;;
78716;SDS011;68045;50.042;14.432;2023-05-10T23:14:56;5.18;;;3.70;;
78716;SDS011;68045;50.042;14.432;2023-05-10T23:18:57;7.78;;;3.25;;
78716;SDS011;68045;50.042;14.432;2023-05-10T23:22:58;4.32;;;3.00;;
78716;SDS011;68045;50.042;14.432;2023-05-10T23:26:59;5.22;;;3.17;;
78716;SDS011;68045;50.042;14.432;2023-05-10T23:31:00;4.72;;;3.38;;
78716;SDS011;68045;50.042;14.432;2023-05-10T23:35:00;4.97;;;2.97;;
78716;SDS011;68045;50.042;14.432;2023-05-10T23:39:01;4.15;;;2.65;;
78716;SDS011;68045;50.042;14.432;2023-05-10T23:43:02;8.10;;;3.45;;
78716;SDS011;68045;50.042;14.432;2023-05-10T23:47:03;5.20;;;2.80;;
78716;SDS011;68045;50.042;14.432;2023-05-10T23:51:04;6.32;;;2.95;;
78716;SDS011;68045;50.042;14.432;2023-05-10T23:55:05;5.47;;;3.03;;
78716;SDS011;68045;50.042;14.432;2023-05-10T23:59:07;4.82;;;3.17;;
